createdAt,value
2019-05-14T00:00:59.347Z,3.83
2019-05-14T00:03:25.989Z,2.15
2019-05-14T00:05:53.760Z,3.65
2019-05-14T00:08:22.119Z,3.75
2019-05-14T00:10:48.953Z,3.35
2019-05-14T00:13:16.707Z,4.10
2019-05-14T00:15:43.324Z,2.83
2019-05-14T00:18:11.883Z,3.15
2019-05-14T00:20:38.587Z,3.47
2019-05-14T00:23:05.186Z,2.30
2019-05-14T00:25:31.782Z,2.27
2019-05-14T00:27:58.555Z,1.92
2019-05-14T00:30:25.230Z,2.60
2019-05-14T00:32:53.740Z,4.30
2019-05-14T00:35:21.545Z,5.08
2019-05-14T00:37:48.305Z,2.17
2019-05-14T00:40:15.025Z,4.05
2019-05-14T00:42:42.704Z,3.77
2019-05-14T00:45:11.557Z,5.75
2019-05-14T00:47:38.506Z,5.67
2019-05-14T00:50:06.226Z,2.35
2019-05-14T00:52:32.871Z,3.35
2019-05-14T00:55:01.120Z,2.67
2019-05-14T00:57:28.171Z,2.50
2019-05-14T00:59:54.790Z,3.98
2019-05-14T01:02:21.841Z,2.62
2019-05-14T01:04:51.711Z,2.45
2019-05-14T01:07:21.019Z,5.50
2019-05-14T01:09:47.536Z,3.42
2019-05-14T01:12:14.212Z,3.12
2019-05-14T01:14:42.426Z,3.17
2019-05-14T01:17:11.296Z,4.60
2019-05-14T01:19:37.914Z,3.98
2019-05-14T01:22:04.633Z,4.08
2019-05-14T01:24:33.546Z,2.92
2019-05-14T01:27:01.750Z,4.25
2019-05-14T01:29:28.527Z,3.27
2019-05-14T01:31:56.964Z,3.70
2019-05-14T01:34:23.934Z,2.10
2019-05-14T01:36:52.766Z,3.72
2019-05-14T01:39:21.202Z,3.83
2019-05-14T01:41:47.672Z,3.25
2019-05-14T01:44:14.311Z,3.98
2019-05-14T01:46:42.048Z,3.80
2019-05-14T01:49:08.869Z,2.80
2019-05-14T01:51:35.458Z,4.05
2019-05-14T01:54:03.186Z,2.77
2019-05-14T01:56:31.826Z,3.02
2019-05-14T01:58:58.370Z,4.03
2019-05-14T02:01:26.913Z,3.42
2019-05-14T02:03:53.520Z,3.67
2019-05-14T02:06:21.281Z,4.42
2019-05-14T02:08:48.355Z,4.85
2019-05-14T02:11:18.473Z,3.20
2019-05-14T02:13:48.257Z,5.35
2019-05-14T02:16:14.169Z,2.92
2019-05-14T02:18:42.179Z,4.67
2019-05-14T02:21:08.761Z,5.50
2019-05-14T02:23:36.422Z,2.85
2019-05-14T02:26:03.078Z,3.12
2019-05-14T02:28:31.644Z,3.50
2019-05-14T02:31:03.155Z,4.33
2019-05-14T02:33:30.314Z,4.05
2019-05-14T02:35:55.556Z,2.15
2019-05-14T02:38:22.322Z,3.70
2019-05-14T02:40:50.844Z,2.25
2019-05-14T02:43:20.077Z,7.62
2019-05-14T02:46:02.013Z,3.47
2019-05-14T02:48:19.858Z,4.58
2019-05-14T02:50:49.080Z,4.08
2019-05-14T02:53:15.468Z,2.98
2019-05-14T02:55:42.108Z,3.08
2019-05-14T02:58:09.919Z,5.80
2019-05-14T03:00:40.429Z,5.55
2019-05-14T03:03:05.722Z,3.00
2019-05-14T03:05:33.785Z,5.37
2019-05-14T03:08:00.409Z,7.67
2019-05-14T03:10:30.265Z,6.90
2019-05-14T03:12:58.848Z,5.55
2019-05-14T03:15:24.610Z,2.72
2019-05-14T03:17:51.458Z,5.17
2019-05-14T03:20:19.582Z,5.78
2019-05-14T03:23:02.607Z,7.17
2019-05-14T03:25:19.181Z,6.15
2019-05-14T03:27:44.662Z,3.02
2019-05-14T03:30:14.282Z,3.75
2019-05-14T03:32:42.727Z,3.72
2019-05-14T03:35:13.145Z,8.98
2019-05-14T03:37:39.070Z,5.67
2019-05-14T03:40:09.344Z,3.95
2019-05-14T03:42:39.987Z,5.20
2019-05-14T03:45:08.461Z,3.77
2019-05-14T03:47:39.117Z,7.37
2019-05-14T03:50:04.669Z,3.15
2019-05-14T03:52:31.393Z,4.58
2019-05-14T03:55:01.273Z,5.67
2019-05-14T03:57:29.194Z,1.87
2019-05-14T03:59:59.471Z,3.98
2019-05-14T04:02:25.203Z,6.80
2019-05-14T04:04:51.837Z,7.22
2019-05-14T04:07:20.304Z,3.70
2019-05-14T04:09:49.699Z,6.17
2019-05-14T04:12:19.253Z,3.50
2019-05-14T04:14:50.472Z,5.55
2019-05-14T04:17:32.569Z,4.90
2019-05-14T04:19:51.741Z,7.62
2019-05-14T04:22:21.982Z,4.78
2019-05-14T04:24:49.879Z,7.35
2019-05-14T04:27:20.424Z,4.62
2019-05-14T04:29:50.840Z,4.90
2019-05-14T04:32:20.186Z,4.97
2019-05-14T04:34:49.957Z,4.15
2019-05-14T04:37:20.068Z,6.78
2019-05-14T04:39:50.034Z,4.95
2019-05-14T04:42:15.113Z,5.17
2019-05-14T04:44:41.737Z,4.67
2019-05-14T04:47:22.726Z,7.60
2019-05-14T04:49:39.937Z,3.45
2019-05-14T04:52:05.584Z,6.17
2019-05-14T04:54:33.454Z,2.67
2019-05-14T04:57:00.760Z,5.95
2019-05-14T04:59:29.930Z,4.25
2019-05-14T05:01:59.732Z,7.60
2019-05-14T05:04:24.632Z,3.20
2019-05-14T05:06:51.277Z,5.03
2019-05-14T05:09:20.043Z,8.83
2019-05-14T05:11:49.505Z,5.78
2019-05-14T05:14:19.034Z,13.78
2019-05-14T05:16:45.140Z,4.12
2019-05-14T05:19:11.819Z,6.83
2019-05-14T05:21:40.430Z,7.20
2019-05-14T05:24:09.179Z,8.75
2019-05-14T05:26:35.666Z,7.70
2019-05-14T05:29:06.919Z,4.62
2019-05-14T05:31:30.912Z,4.85
2019-05-14T05:33:59.541Z,7.22
2019-05-14T05:36:26.207Z,4.78
2019-05-14T05:38:52.854Z,4.75
2019-05-14T05:41:19.467Z,3.98
2019-05-14T05:43:48.390Z,5.95
2019-05-14T05:46:15.450Z,4.92
2019-05-14T05:48:43.864Z,5.20
2019-05-14T05:51:10.524Z,4.25
2019-05-14T05:53:39.281Z,3.33
2019-05-14T05:56:08.743Z,4.20
2019-05-14T05:58:34.315Z,5.45
2019-05-14T06:01:00.986Z,3.00
2019-05-14T06:03:29.959Z,4.30
2019-05-14T06:05:59.162Z,5.67
2019-05-14T06:08:25.460Z,4.95
2019-05-14T06:10:53.282Z,5.08
2019-05-14T06:13:21.662Z,3.67
2019-05-14T06:15:51.908Z,4.62
2019-05-14T06:18:19.487Z,4.17
2019-05-14T06:20:45.562Z,3.05
2019-05-14T06:23:12.272Z,5.83
2019-05-14T06:25:39.990Z,3.70
2019-05-14T06:28:08.672Z,5.17
2019-05-14T06:30:40.329Z,6.05
2019-05-14T06:33:09.270Z,4.30
2019-05-14T06:35:35.989Z,3.55
2019-05-14T06:38:02.630Z,4.10
2019-05-14T06:40:29.239Z,3.60
2019-05-14T06:42:55.872Z,4.78
2019-05-14T06:45:24.695Z,7.47
2019-05-14T06:47:51.588Z,6.20
2019-05-14T06:50:19.042Z,6.67
2019-05-14T06:52:49.211Z,8.28
2019-05-14T06:55:18.075Z,4.65
2019-05-14T06:57:45.143Z,5.90
2019-05-14T07:00:12.019Z,5.40
2019-05-14T07:02:43.535Z,4.53
2019-05-14T07:05:11.277Z,5.80
2019-05-14T07:07:40.405Z,5.78
2019-05-14T07:10:08.958Z,4.05
2019-05-14T07:12:35.664Z,3.47
2019-05-14T07:15:03.876Z,3.72
2019-05-14T07:17:31.956Z,4.05
2019-05-14T07:19:58.574Z,6.95
2019-05-14T07:22:25.322Z,11.12
2019-05-14T07:24:52.515Z,5.45
2019-05-14T07:27:21.368Z,4.62
2019-05-14T07:29:49.846Z,7.35
2019-05-14T07:32:19.132Z,7.28
2019-05-14T07:34:48.033Z,5.53
2019-05-14T07:37:14.319Z,5.25
2019-05-14T07:39:40.963Z,10.43
2019-05-14T07:42:09.778Z,4.33
2019-05-14T07:44:36.196Z,6.50
2019-05-14T07:47:08.251Z,3.15
2019-05-14T07:49:38.545Z,3.55
2019-05-14T07:52:05.484Z,6.58
2019-05-14T07:54:33.238Z,3.52
2019-05-14T07:56:59.899Z,3.98
2019-05-14T07:59:28.564Z,6.15
2019-05-14T08:01:55.707Z,4.42
2019-05-14T08:04:22.317Z,3.80
2019-05-14T08:06:48.933Z,5.83
2019-05-14T08:09:15.509Z,6.70
2019-05-14T08:11:42.146Z,5.60
2019-05-14T08:14:09.183Z,5.17
2019-05-14T08:16:37.956Z,5.08
2019-05-14T08:19:23.021Z,3.77
2019-05-14T08:21:35.216Z,7.22
2019-05-14T08:24:03.016Z,4.97
2019-05-14T08:26:31.456Z,5.22
2019-05-14T08:28:58.128Z,3.75
2019-05-14T08:31:24.806Z,3.17
2019-05-14T08:33:51.498Z,6.80
2019-05-14T08:36:18.549Z,4.92
2019-05-14T08:38:47.423Z,5.05
2019-05-14T08:41:14.311Z,3.33
2019-05-14T08:43:40.918Z,4.72
2019-05-14T08:46:08.252Z,1.87
2019-05-14T08:48:35.092Z,2.85
2019-05-14T08:51:01.696Z,8.38
2019-05-14T08:53:29.614Z,4.35
2019-05-14T08:55:59.052Z,4.22
2019-05-14T08:58:26.195Z,4.30
2019-05-14T09:00:53.087Z,3.83
2019-05-14T09:03:19.815Z,3.80
2019-05-14T09:05:49.261Z,3.92
2019-05-14T09:08:16.019Z,4.03
2019-05-14T09:10:42.671Z,4.00
2019-05-14T09:13:09.270Z,6.17
2019-05-14T09:15:38.339Z,1.67
2019-05-14T09:18:04.576Z,7.12
2019-05-14T09:20:31.289Z,5.00
2019-05-14T09:22:59.524Z,3.65
2019-05-14T09:25:29.035Z,4.17
2019-05-14T09:27:54.956Z,3.52
2019-05-14T09:30:22.895Z,5.92
2019-05-14T09:32:49.626Z,3.25
2019-05-14T09:35:18.872Z,2.40
2019-05-14T09:37:44.904Z,3.35
2019-05-14T09:40:11.646Z,3.70
2019-05-14T09:42:39.264Z,3.25
2019-05-14T09:45:11.124Z,4.70
2019-05-14T09:47:38.766Z,7.20
2019-05-14T09:50:16.655Z,9.40
2019-05-14T09:52:39.501Z,6.60
2019-05-14T09:55:06.243Z,2.87
2019-05-14T09:58:02.102Z,5.97
2019-05-14T10:00:39.010Z,6.45
2019-05-14T10:03:46.023Z,5.40
2019-05-14T10:06:12.675Z,6.28
2019-05-14T10:08:39.331Z,3.40
2019-05-14T10:11:07.177Z,2.30
2019-05-14T10:13:39.037Z,4.65
2019-05-14T10:16:04.990Z,2.87
2019-05-14T10:18:32.399Z,3.40
2019-05-14T10:20:59.216Z,3.92
2019-05-14T10:23:28.314Z,3.08
2019-05-14T10:25:57.559Z,7.58
2019-05-14T10:28:24.201Z,4.00
2019-05-14T10:30:50.836Z,3.37
2019-05-14T10:33:18.087Z,6.20
2019-05-14T10:35:48.187Z,2.33
2019-05-14T10:38:14.199Z,4.50
2019-05-14T10:40:41.984Z,5.75
2019-05-14T10:43:10.055Z,7.40
2019-05-14T10:45:38.449Z,4.97
2019-05-14T10:48:05.398Z,11.03
2019-05-14T10:50:32.017Z,6.47
2019-05-14T10:52:59.765Z,4.08
2019-05-14T10:55:27.988Z,4.60
2019-05-14T10:57:54.851Z,2.37
2019-05-14T11:00:22.220Z,5.78
2019-05-14T11:02:49.282Z,4.83
2019-05-14T11:05:18.548Z,4.67
2019-05-14T11:07:44.671Z,6.00
2019-05-14T11:10:11.934Z,5.08
2019-05-14T11:12:39.559Z,5.35
2019-05-14T11:15:09.556Z,1.95
2019-05-14T11:17:36.157Z,3.62
2019-05-14T11:20:04.451Z,3.15
2019-05-14T11:22:32.249Z,5.35
2019-05-14T11:24:59.298Z,3.70
2019-05-14T11:27:26.013Z,3.72
2019-05-14T11:29:54.156Z,3.17
2019-05-14T11:32:20.815Z,2.72
2019-05-14T11:34:47.409Z,2.47
2019-05-14T11:37:14.067Z,1.98
2019-05-14T11:39:40.668Z,3.05
2019-05-14T11:42:08.723Z,4.47
2019-05-14T11:44:37.998Z,3.70
2019-05-14T11:47:03.993Z,2.47
2019-05-14T11:49:30.584Z,2.47
2019-05-14T11:52:06.893Z,2.95
2019-05-14T11:54:26.159Z,2.60
2019-05-14T11:56:54.108Z,5.05
2019-05-14T11:59:20.698Z,2.27
2019-05-14T12:01:49.394Z,2.67
2019-05-14T12:04:15.797Z,2.62
2019-05-14T12:06:42.532Z,5.80
2019-05-14T12:09:11.996Z,4.42
2019-05-14T12:11:38.789Z,3.40
2019-05-14T12:14:05.632Z,2.52
2019-05-14T12:16:34.031Z,2.90
2019-05-14T12:19:02.670Z,3.95
2019-05-14T12:21:29.322Z,5.30
2019-05-14T12:24:02.956Z,3.05
2019-05-14T12:26:24.515Z,3.92
2019-05-14T12:28:51.164Z,3.20
2019-05-14T12:31:17.765Z,3.05
2019-05-14T12:33:44.436Z,3.95
2019-05-14T12:36:12.788Z,4.55
2019-05-14T12:38:39.484Z,2.20
2019-05-14T12:41:08.942Z,3.98
2019-05-14T12:43:34.751Z,6.00
2019-05-14T12:46:02.207Z,3.25
2019-05-14T12:48:29.782Z,1.80
2019-05-14T12:50:59.462Z,3.72
2019-05-14T12:53:28.531Z,2.40
2019-05-14T12:55:54.151Z,2.02
2019-05-14T12:58:22.348Z,1.60
2019-05-14T13:00:49.090Z,4.33
2019-05-14T13:03:15.966Z,3.35
2019-05-14T13:05:42.592Z,4.12
2019-05-14T13:08:11.449Z,4.55
2019-05-14T13:10:38.730Z,2.65
2019-05-14T13:13:05.445Z,6.12
2019-05-14T13:15:33.965Z,4.15
2019-05-14T13:18:01.275Z,4.90
2019-05-14T13:20:29.112Z,4.25
2019-05-14T13:22:55.954Z,5.75
2019-05-14T13:25:22.546Z,2.72
2019-05-14T13:27:51.420Z,2.77
2019-05-14T13:30:18.643Z,4.45
2019-05-14T13:32:48.750Z,4.08
2019-05-14T13:35:19.341Z,3.05
2019-05-14T13:37:44.646Z,6.35
2019-05-14T13:40:13.982Z,1.67
2019-05-14T13:42:44.599Z,4.08
2019-05-14T13:45:12.990Z,4.22
2019-05-14T13:47:39.606Z,5.95
2019-05-14T13:50:08.586Z,6.30
2019-05-14T13:52:35.508Z,4.97
2019-05-14T13:55:02.800Z,4.10
2019-05-14T13:57:29.616Z,3.77
2019-05-14T13:59:58.855Z,7.17
2019-05-14T14:02:27.921Z,2.62
2019-05-14T14:04:53.332Z,6.55
2019-05-14T14:07:19.975Z,3.85
2019-05-14T14:09:46.584Z,3.17
2019-05-14T14:12:13.317Z,3.42
2019-05-14T14:14:39.933Z,2.52
2019-05-14T14:17:06.518Z,1.92
2019-05-14T14:19:33.365Z,2.95
2019-05-14T14:22:00.350Z,2.50
2019-05-14T14:24:31.589Z,3.02
2019-05-14T14:27:04.600Z,2.65
2019-05-14T14:29:31.651Z,6.20
2019-05-14T14:31:58.946Z,3.08
2019-05-14T14:34:25.808Z,3.27
2019-05-14T14:36:55.075Z,3.30
2019-05-14T14:39:20.958Z,2.20
2019-05-14T14:41:48.834Z,3.92
2019-05-14T14:44:15.862Z,4.17
2019-05-14T14:46:42.481Z,3.50
2019-05-14T14:49:10.760Z,2.33
2019-05-14T14:51:44.066Z,3.30
2019-05-14T14:54:14.465Z,2.47
2019-05-14T14:56:34.837Z,5.78
2019-05-14T14:59:01.498Z,4.42
2019-05-14T15:01:30.032Z,7.80
2019-05-14T15:04:00.069Z,7.28
2019-05-14T15:06:30.561Z,10.60
2019-05-14T15:08:58.918Z,6.50
2019-05-14T15:11:29.213Z,4.55
2019-05-14T15:13:54.132Z,3.87
2019-05-14T15:16:22.406Z,3.12
2019-05-14T15:18:49.745Z,6.58
2019-05-14T15:21:19.141Z,3.70
2019-05-14T15:24:02.909Z,4.15
2019-05-14T15:26:16.124Z,7.20
2019-05-14T15:28:44.024Z,4.70
2019-05-14T15:31:12.458Z,8.50
2019-05-14T15:36:21.774Z,7.72
2019-05-14T15:38:48.689Z,6.47
2019-05-14T15:41:19.984Z,6.20
2019-05-14T15:43:47.197Z,3.75
2019-05-14T15:46:13.796Z,6.55
2019-05-14T15:48:40.648Z,4.25
2019-05-14T15:51:14.255Z,4.20
2019-05-14T15:53:38.671Z,6.83
2019-05-14T15:56:07.906Z,8.03
2019-05-14T15:58:34.838Z,9.03
2019-05-14T16:01:02.540Z,11.93
2019-05-14T16:03:29.119Z,6.30
2019-05-14T16:05:55.751Z,6.85
2019-05-14T16:08:22.950Z,6.85
2019-05-14T16:10:49.786Z,5.20
2019-05-14T16:13:20.888Z,6.00
2019-05-14T16:15:44.877Z,6.00
2019-05-14T16:18:18.535Z,5.25
2019-05-14T16:20:40.326Z,4.15
2019-05-14T16:23:10.568Z,4.28
2019-05-14T16:25:38.046Z,5.72
2019-05-14T16:28:08.561Z,4.37
2019-05-14T16:30:35.074Z,5.03
2019-05-14T16:33:01.645Z,4.53
2019-05-14T16:35:28.625Z,5.78
2019-05-14T16:37:55.403Z,5.83
2019-05-14T16:40:22.314Z,9.95
2019-05-14T16:42:48.910Z,8.93
2019-05-14T16:45:18.474Z,7.37
2019-05-14T16:47:44.403Z,9.08
2019-05-14T16:50:11.494Z,6.30
2019-05-14T16:52:42.155Z,6.97
2019-05-14T16:55:20.187Z,6.60
2019-05-14T16:57:38.660Z,4.80
2019-05-14T17:00:09.414Z,4.40
2019-05-14T17:02:36.171Z,4.33
2019-05-14T17:05:03.986Z,4.95
2019-05-14T17:07:31.030Z,10.85
2019-05-14T17:09:58.175Z,5.78
2019-05-14T17:12:24.939Z,6.08
2019-05-14T17:14:52.775Z,6.20
2019-05-14T17:17:20.167Z,17.48
2019-05-14T17:19:48.035Z,18.25
2019-05-14T17:22:25.344Z,7.67
2019-05-14T17:24:43.394Z,6.53
2019-05-14T17:27:11.061Z,5.17
2019-05-14T17:29:38.917Z,6.22
2019-05-14T17:32:06.262Z,6.55
2019-05-14T17:34:32.900Z,14.13
2019-05-14T17:36:59.530Z,10.88
2019-05-14T17:39:27.316Z,10.40
2019-05-14T17:41:53.908Z,5.40
2019-05-14T17:44:20.516Z,23.25
2019-05-14T17:46:48.933Z,13.32
2019-05-14T17:49:15.739Z,4.22
2019-05-14T17:51:42.371Z,13.18
2019-05-14T17:54:09.311Z,7.85
2019-05-14T17:56:35.960Z,4.85
2019-05-14T17:59:03.915Z,6.95
2019-05-14T18:01:30.543Z,8.40
2019-05-14T18:03:58.443Z,8.85
2019-05-14T18:06:28.580Z,8.25
2019-05-14T18:08:55.448Z,5.10
2019-05-14T18:11:22.053Z,5.30
2019-05-14T18:13:48.848Z,7.12
2019-05-14T18:16:18.944Z,6.87
2019-05-14T18:18:45.307Z,9.40
2019-05-14T18:21:12.777Z,13.08
2019-05-14T18:23:42.233Z,13.83
2019-05-14T18:26:09.436Z,7.28
2019-05-14T18:28:38.308Z,13.18
2019-05-14T18:31:06.274Z,12.23
2019-05-14T18:33:32.865Z,8.33
2019-05-14T18:35:59.516Z,10.65
2019-05-14T18:38:28.886Z,10.45
2019-05-14T18:40:54.670Z,12.40
2019-05-14T18:43:24.249Z,12.33
2019-05-14T18:45:50.933Z,17.48
2019-05-14T18:48:19.379Z,10.60
2019-05-14T18:50:48.408Z,10.48
2019-05-14T18:53:15.772Z,9.88
2019-05-14T18:55:42.433Z,9.90
2019-05-14T18:58:09.017Z,12.40
2019-05-14T19:00:35.628Z,13.45
2019-05-14T19:03:02.253Z,14.70
2019-05-14T19:05:29.560Z,13.53
2019-05-14T19:07:56.391Z,11.45
2019-05-14T19:10:23.059Z,14.58
2019-05-14T19:12:50.297Z,12.47
2019-05-14T19:15:18.543Z,12.82
2019-05-14T19:17:45.452Z,13.13
2019-05-14T19:20:13.367Z,15.85
2019-05-14T19:22:40.194Z,13.35
2019-05-14T19:25:08.925Z,16.67
2019-05-14T19:27:37.823Z,13.75
2019-05-14T19:30:05.626Z,12.18
2019-05-14T19:32:32.283Z,12.78
2019-05-14T19:34:59.991Z,12.43
2019-05-14T19:37:28.959Z,12.18
2019-05-14T19:39:55.147Z,12.05
2019-05-14T19:42:22.215Z,14.25
2019-05-14T19:44:49.164Z,16.82
2019-05-14T19:47:18.711Z,20.85
2019-05-14T19:49:45.594Z,24.72
2019-05-14T19:52:12.298Z,15.18
2019-05-14T19:54:38.953Z,15.13
2019-05-14T19:57:05.569Z,13.88
2019-05-14T19:59:32.141Z,15.13
2019-05-14T20:02:02.501Z,16.45
2019-05-14T20:04:29.365Z,16.45
2019-05-14T20:06:57.557Z,16.48
2019-05-14T20:09:24.187Z,12.33
2019-05-14T20:11:50.805Z,16.37
2019-05-14T20:14:17.512Z,14.23
2019-05-14T20:16:44.491Z,14.75
2019-05-14T20:19:12.258Z,16.48
2019-05-14T20:21:39.209Z,12.75
2019-05-14T20:24:06.038Z,14.45
2019-05-14T20:26:32.613Z,12.05
2019-05-14T20:28:59.241Z,12.03
2019-05-14T20:31:25.868Z,10.10
2019-05-14T20:33:52.465Z,12.65
2019-05-14T20:36:19.117Z,7.83
2019-05-14T20:38:48.147Z,7.05
2019-05-14T20:41:18.107Z,9.50
2019-05-14T20:43:45.017Z,8.13
2019-05-14T20:46:11.717Z,8.45
2019-05-14T20:48:39.077Z,7.72
2019-05-14T20:51:08.837Z,8.50
2019-05-14T20:53:35.106Z,11.22
2019-05-14T20:56:01.741Z,7.37
2019-05-14T20:58:28.426Z,10.10
2019-05-14T21:00:55.065Z,11.70
2019-05-14T21:03:21.706Z,10.18
2019-05-14T21:05:49.185Z,8.73
2019-05-14T21:08:16.097Z,9.98
2019-05-14T21:10:42.715Z,12.53
2019-05-14T21:13:09.823Z,9.40
2019-05-14T21:15:38.997Z,11.12
2019-05-14T21:18:05.051Z,9.55
2019-05-14T21:20:31.831Z,12.98
2019-05-14T21:22:58.741Z,10.95
2019-05-14T21:25:25.597Z,9.40
2019-05-14T21:27:52.406Z,12.28
2019-05-14T21:30:21.929Z,10.00
2019-05-14T21:32:49.690Z,9.50
2019-05-14T21:35:16.375Z,10.70
2019-05-14T21:37:43.095Z,11.90
2019-05-14T21:40:09.794Z,9.28
2019-05-14T21:42:38.391Z,8.73
2019-05-14T21:45:09.073Z,10.60
2019-05-14T21:47:34.075Z,12.25
2019-05-14T21:50:00.705Z,19.17
2019-05-14T21:52:28.966Z,16.10
2019-05-14T21:54:58.615Z,16.90
2019-05-14T21:57:25.734Z,18.62
2019-05-14T21:59:52.351Z,16.42
2019-05-14T22:02:24.943Z,14.68
2019-05-14T22:04:50.306Z,12.80
2019-05-14T22:07:18.796Z,34.88
2019-05-14T22:09:45.380Z,37.15
2019-05-14T22:12:13.233Z,35.05
2019-05-14T22:14:39.869Z,24.20
2019-05-14T22:17:08.002Z,14.65
2019-05-14T22:19:34.880Z,15.80
2019-05-14T22:22:01.518Z,16.05
2019-05-14T22:24:28.779Z,14.25
2019-05-14T22:26:58.286Z,14.55
2019-05-14T22:29:25.066Z,13.20
2019-05-14T22:31:51.724Z,14.38
2019-05-14T22:34:18.473Z,15.13
2019-05-14T22:36:45.168Z,11.78
2019-05-14T22:39:11.790Z,11.75
2019-05-14T22:41:38.522Z,11.93
2019-05-14T22:44:05.160Z,12.03
2019-05-14T22:46:32.147Z,8.78
2019-05-14T22:48:58.817Z,8.45
2019-05-14T22:51:25.467Z,4.47
2019-05-14T22:53:52.121Z,7.53
2019-05-14T22:56:18.796Z,7.17
2019-05-14T22:58:45.428Z,6.45
2019-05-14T23:01:14.836Z,5.42
2019-05-14T23:03:40.574Z,6.55
2019-05-14T23:06:08.996Z,5.55
2019-05-14T23:08:36.068Z,6.78
2019-05-14T23:11:02.816Z,6.70
2019-05-14T23:13:30.965Z,5.83
2019-05-14T23:15:58.878Z,6.65
2019-05-14T23:18:25.768Z,7.20
2019-05-14T23:20:52.406Z,5.70
2019-05-14T23:23:19.014Z,6.08
2019-05-14T23:25:45.712Z,6.55
2019-05-14T23:28:12.344Z,8.20
2019-05-14T23:30:39.039Z,6.20
2019-05-14T23:33:07.941Z,7.15
2019-05-14T23:35:34.558Z,6.83
2019-05-14T23:38:02.352Z,7.15
2019-05-14T23:40:30.390Z,10.28
2019-05-14T23:42:58.899Z,6.95
2019-05-14T23:45:28.417Z,8.53
2019-05-14T23:47:55.368Z,9.78
2019-05-14T23:50:22.497Z,8.68
2019-05-14T23:52:49.502Z,8.60
2019-05-14T23:55:18.245Z,8.45
2019-05-14T23:57:45.258Z,9.10
